Time;durP1;ratioP1;P1;durP2;ratioP2;P2;SDS_P1;SDS_P2;PMS_P1;PMS_P2;Temp;Humidity;BMP_temperature;BMP_pressure;BME280_temperature;BME280_humidity;BME280_pressure;Samples;Min_cycle;Max_cycle;Signal;HPM_P1;HPM_P2
2021/05/16 01:43:24;;;;;;;2.78;1.20;;;11.00;99.90;;;;;;6103186;23;20038;-91
2021/05/16 08:26:10;;;;;;;5.70;1.25;;;13.90;99.90;;;;;;6024751;23;20009;-91
2021/05/16 08:28:38;;;;;;;5.10;1.08;;;14.20;99.90;;;;;;6103634;23;20010;-95
2021/05/16 09:09:26;;;;;;;4.00;1.10;;;14.80;99.90;;;;;;5995302;23;20003;-91
2021/05/16 09:11:55;;;;;;;4.78;1.00;;;14.90;99.90;;;;;;6084504;23;20017;-95
2021/05/16 09:42:07;;;;;;;4.45;1.55;;;15.70;99.90;;;;;;6051201;23;20022;-96
2021/05/16 09:59:17;;;;;;;4.53;1.00;;;15.60;99.80;;;;;;6139418;23;20038;-93
2021/05/16 10:07:24;;;;;;;4.88;1.00;;;15.90;99.80;;;;;;6077432;23;20014;-94
2021/05/16 10:09:53;;;;;;;6.32;1.30;;;16.60;97.40;;;;;;6128782;23;20008;-95
2021/05/16 10:24:11;;;;;;;5.15;1.80;;;15.50;96.10;;;;;;5973001;23;20015;31
2021/05/16 10:38:39;;;;;;;7.07;1.80;;;16.60;94.10;;;;;;6067576;23;20018;-94
2021/05/16 10:41:24;;;;;;;6.25;1.00;;;17.30;85.60;;;;;;6023057;23;20017;-92
2021/05/16 10:44:12;;;;;;;4.97;1.10;;;17.70;87.40;;;;;;6071012;23;20018;-96
2021/05/16 10:46:46;;;;;;;6.15;1.15;;;18.40;71.80;;;;;;6072428;23;20013;-95
2021/05/16 10:58:04;;;;;;;5.00;1.23;;;18.10;74.20;;;;;;6076856;23;20014;-93
2021/05/16 11:00:35;;;;;;;4.78;1.10;;;18.70;68.50;;;;;;6124517;23;20020;-93
2021/05/16 11:03:06;;;;;;;4.70;0.90;;;19.30;64.30;;;;;;6144311;23;20020;-96
2021/05/16 11:05:59;;;;;;;5.60;0.95;;;20.10;60.90;;;;;;6096535;23;20021;-96
2021/05/16 11:09:00;;;;;;;3.38;0.80;;;20.70;56.20;;;;;;6120405;23;20017;-96
2021/05/16 11:11:32;;;;;;;4.88;1.20;;;20.80;51.40;;;;;;6009000;23;20018;-96
2021/05/16 11:14:02;;;;;;;4.05;0.80;;;21.50;52.30;;;;;;6033894;23;20038;-96
2021/05/16 11:16:30;;;;;;;1.80;0.73;;;21.10;52.50;;;;;;6105451;23;20014;-96
2021/05/16 11:19:00;;;;;;;3.03;0.90;;;21.20;51.90;;;;;;6116549;23;20018;-94
2021/05/16 11:21:29;;;;;;;5.45;1.45;;;20.20;54.10;;;;;;6094779;23;20345;-96
2021/05/16 11:23:57;;;;;;;2.47;0.77;;;19.60;57.10;;;;;;6093098;23;20050;-96
2021/05/16 11:26:29;;;;;;;5.15;1.17;;;19.70;57.40;;;;;;6093752;23;20025;-94
2021/05/16 11:32:04;;;;;;;6.50;1.48;;;17.80;62.10;;;;;;6072647;23;20018;-93
2021/05/16 11:34:32;;;;;;;4.07;1.05;;;17.60;67.10;;;;;;6105085;23;20013;-92
2021/05/16 11:37:15;;;;;;;6.73;1.47;;;17.50;65.60;;;;;;6154066;23;20027;-94
2021/05/16 11:39:44;;;;;;;3.78;1.00;;;18.10;67.10;;;;;;6102537;23;20018;-96
2021/05/16 11:42:12;;;;;;;7.10;1.20;;;18.30;67.40;;;;;;6126867;23;20021;-96
2021/05/16 11:44:40;;;;;;;5.00;1.30;;;18.30;68.50;;;;;;6107242;23;20001;-96
2021/05/16 11:47:12;;;;;;;6.45;1.30;;;18.00;72.90;;;;;;6154218;23;20018;-96
2021/05/16 11:49:49;;;;;;;4.88;1.20;;;18.10;74.40;;;;;;6106640;23;20012;-96
2021/05/16 11:52:17;;;;;;;5.63;1.17;;;18.40;70.00;;;;;;6155567;23;20017;-96
2021/05/16 11:54:44;;;;;;;12.05;1.50;;;18.40;68.90;;;;;;6063329;23;20030;-91
2021/05/16 11:57:15;;;;;;;4.05;1.55;;;18.00;71.80;;;;;;6099136;23;20025;-95
2021/05/16 11:59:44;;;;;;;6.68;1.27;;;18.60;68.50;;;;;;6072192;23;20017;-96
2021/05/16 12:02:12;;;;;;;6.30;1.05;;;19.00;67.00;;;;;;6073643;23;20010;-96
2021/05/16 12:04:42;;;;;;;4.90;1.08;;;19.10;66.30;;;;;;6093954;23;20303;-92
2021/05/16 12:07:09;;;;;;;4.47;1.10;;;18.50;62.30;;;;;;6090713;23;20026;-93
2021/05/16 12:09:40;;;;;;;3.13;1.07;;;18.60;62.70;;;;;;5947084;23;20039;-90
2021/05/16 12:29:22;;;;;;;3.97;1.00;;;19.10;60.00;;;;;;6130728;23;20018;-96
2021/05/16 12:31:52;;;;;;;2.65;0.88;;;20.00;58.20;;;;;;6151121;23;20010;-94
2021/05/16 12:34:24;;;;;;;4.50;1.30;;;20.20;57.90;;;;;;6069660;23;20027;-96
2021/05/16 12:37:03;;;;;;;1.40;0.75;;;21.20;56.10;;;;;;6069418;23;20010;-96
2021/05/16 12:39:40;;;;;;;3.00;1.02;;;21.20;55.00;;;;;;6072462;23;20015;-96
2021/05/16 12:42:23;;;;;;;3.60;0.85;;;20.70;56.50;;;;;;6046809;23;20026;-92
2021/05/16 12:44:51;;;;;;;3.25;0.77;;;20.60;55.20;;;;;;6090725;23;20386;-96
2021/05/16 12:47:54;;;;;;;2.92;0.85;;;21.00;54.80;;;;;;6065820;23;20338;-96
2021/05/16 12:50:30;;;;;;;2.67;0.77;;;22.40;51.20;;;;;;6069488;23;20034;-95
2021/05/16 12:53:39;;;;;;;3.00;0.70;;;21.50;51.60;;;;;;6045664;23;20017;-96
2021/05/16 12:56:29;;;;;;;2.10;0.60;;;21.30;54.20;;;;;;6043477;23;20014;-96
2021/05/16 12:59:30;;;;;;;3.60;0.82;;;21.90;55.00;;;;;;6065637;23;20014;-96
2021/05/16 13:02:17;;;;;;;1.77;0.65;;;21.80;53.10;;;;;;6067215;23;20059;-96
2021/05/16 13:05:02;;;;;;;2.90;0.63;;;22.20;52.80;;;;;;6038667;23;20030;-91
2021/05/16 13:07:34;;;;;;;1.38;0.40;;;23.30;49.80;;;;;;6058619;23;20018;-95
2021/05/16 13:10:34;;;;;;;1.67;0.55;;;22.40;49.50;;;;;;6041535;23;20030;-96
2021/05/16 13:13:13;;;;;;;1.67;0.40;;;21.90;50.80;;;;;;6034863;23;20011;-96
2021/05/16 13:15:43;;;;;;;1.15;0.40;;;21.40;51.40;;;;;;6086506;23;20022;-96
2021/05/16 13:18:27;;;;;;;1.10;0.55;;;21.60;51.30;;;;;;6089672;23;20019;-96
2021/05/16 13:21:14;;;;;;;0.60;0.47;;;22.30;49.40;;;;;;6018594;23;20018;-96
2021/05/16 13:23:44;;;;;;;2.47;0.93;;;22.50;49.80;;;;;;6063188;23;20019;-96
2021/05/16 13:26:12;;;;;;;1.77;0.60;;;23.30;48.50;;;;;;6087066;23;20010;-96
2021/05/16 13:28:43;;;;;;;1.45;0.50;;;22.30;50.20;;;;;;6038565;23;20013;-96
2021/05/16 13:31:11;;;;;;;1.80;0.60;;;22.30;51.10;;;;;;6059954;23;20011;-95
2021/05/16 13:33:42;;;;;;;1.52;0.63;;;23.50;50.20;;;;;;6058590;23;20335;-93
2021/05/16 13:36:11;;;;;;;1.95;0.45;;;25.40;46.70;;;;;;6060683;23;20057;-95
2021/05/16 13:38:40;;;;;;;2.08;0.60;;;24.10;47.00;;;;;;6065238;23;20243;-96
2021/05/16 13:41:33;;;;;;;1.23;0.57;;;22.90;49.10;;;;;;6065423;23;20071;-93
2021/05/16 13:44:07;;;;;;;2.97;0.68;;;23.10;49.80;;;;;;6113014;23;20042;-96
2021/05/16 13:46:37;;;;;;;2.33;0.60;;;22.70;50.10;;;;;;6089773;23;20010;-95
2021/05/16 13:49:41;;;;;;;1.77;0.47;;;21.80;52.20;;;;;;6065491;23;20022;-96
2021/05/16 13:52:12;;;;;;;1.63;0.70;;;21.80;54.20;;;;;;6091822;23;20025;-94
2021/05/16 13:54:54;;;;;;;1.23;0.50;;;22.60;52.50;;;;;;6073785;23;20349;-96
2021/05/16 13:57:47;;;;;;;1.58;0.65;;;22.40;51.20;;;;;;6072674;23;20248;-96
2021/05/16 14:00:38;;;;;;;1.65;1.00;;;21.80;52.90;;;;;;6070758;23;20017;-96
2021/05/16 14:03:12;;;;;;;2.30;0.70;;;23.30;51.30;;;;;;6089983;23;20018;-96
2021/05/16 14:05:53;;;;;;;1.42;0.45;;;21.70;53.00;;;;;;6119763;23;20021;-96
2021/05/16 14:08:20;;;;;;;2.03;0.57;;;20.80;55.30;;;;;;6088460;23;20611;-92
2021/05/16 14:10:52;;;;;;;;;;;22.10;54.50;;;;;;6089335;23;20022;-92
2021/05/16 14:13:49;;;;;;;2.30;0.43;;;22.60;52.20;;;;;;6092147;23;19929;-92
2021/05/16 14:16:18;;;;;;;1.80;0.63;;;22.70;52.40;;;;;;6115336;23;20010;-91
2021/05/16 14:18:46;;;;;;;1.05;0.50;;;23.00;51.70;;;;;;6088108;23;20018;-93
2021/05/16 14:21:15;;;;;;;2.43;0.70;;;23.80;49.10;;;;;;6084669;23;20226;-96
2021/05/16 14:23:42;;;;;;;1.17;0.50;;;21.70;51.80;;;;;;6061034;23;20050;-95
2021/05/16 14:26:14;;;;;;;1.40;0.50;;;20.10;55.10;;;;;;6063214;23;20025;-94
2021/05/16 14:28:45;;;;;;;0.95;0.30;;;19.30;57.30;;;;;;6107707;23;20025;-94
2021/05/16 14:31:13;;;;;;;1.25;0.70;;;19.00;59.10;;;;;;6062929;23;20010;-94
2021/05/16 14:33:43;;;;;;;1.48;0.50;;;18.70;61.50;;;;;;6071643;23;20059;-96
2021/05/16 14:36:12;;;;;;;2.60;1.02;;;17.90;77.20;;;;;;6075181;23;20026;-96
2021/05/16 14:38:41;;;;;;;1.77;0.50;;;17.00;94.90;;;;;;6077109;23;20014;-94
2021/05/16 14:41:10;;;;;;;1.23;0.50;;;16.30;99.90;;;;;;6126222;23;20017;-93
2021/05/16 14:43:38;;;;;;;1.52;0.38;;;16.00;99.90;;;;;;6078171;23;20013;-95
2021/05/16 14:46:05;;;;;;;0.70;0.40;;;15.80;99.90;;;;;;6078678;23;20017;-94
2021/05/16 14:52:54;;;;;;;0.98;0.43;;;15.40;99.90;;;;;;6126653;23;20006;-95
2021/05/16 14:55:23;;;;;;;1.35;0.43;;;15.50;99.90;;;;;;6064180;23;20022;-94
2021/05/16 14:57:53;;;;;;;3.00;0.68;;;15.50;99.90;;;;;;6084575;23;20050;-95
2021/05/16 15:00:27;;;;;;;1.00;0.45;;;15.90;99.90;;;;;;6043676;23;20018;-93
2021/05/16 15:02:55;;;;;;;7.15;0.90;;;16.10;99.90;;;;;;6064288;23;20010;-95
2021/05/16 15:05:23;;;;;;;6.50;0.90;;;16.20;99.90;;;;;;6061759;23;20050;-92
2021/05/16 15:07:56;;;;;;;3.38;0.60;;;16.50;99.90;;;;;;6070910;23;20018;-94
2021/05/16 15:10:29;;;;;;;5.45;1.00;;;16.70;99.90;;;;;;6120526;23;20021;-95
2021/05/16 15:12:57;;;;;;;7.90;1.45;;;16.80;99.90;;;;;;6065935;23;20528;-94
2021/05/16 15:15:26;;;;;;;4.50;1.15;;;17.00;99.90;;;;;;6096258;23;20010;-94
2021/05/16 15:17:57;;;;;;;;;;;17.50;99.90;;;;;;6073472;23;20014;-93
2021/05/16 15:20:27;;;;;;;1.08;0.52;;;17.80;98.50;;;;;;6096131;23;19991;-94
2021/05/16 15:22:58;;;;;;;1.08;0.55;;;17.80;97.40;;;;;;6118087;23;20006;-96
2021/05/16 15:25:29;;;;;;;0.95;0.60;;;17.40;97.30;;;;;;6122314;23;20019;-95
2021/05/16 15:28:16;;;;;;;2.08;0.60;;;17.10;99.20;;;;;;6075922;23;20017;-96
2021/05/16 15:37:05;;;;;;;3.65;0.68;;;16.90;99.90;;;;;;6032990;23;20351;-96
2021/05/16 15:39:37;;;;;;;3.58;1.00;;;16.90;99.90;;;;;;6129629;23;20014;-95
2021/05/16 15:42:07;;;;;;;3.22;0.85;;;16.80;99.90;;;;;;6125132;23;20021;-95
2021/05/16 15:44:37;;;;;;;4.63;1.05;;;17.50;99.90;;;;;;6155379;23;20033;-93
2021/05/16 15:47:06;;;;;;;2.40;0.60;;;18.10;99.40;;;;;;6151667;23;20017;-95
2021/05/16 15:49:37;;;;;;;1.75;0.73;;;18.30;98.80;;;;;;6153966;23;20021;-92
2021/05/16 15:52:05;;;;;;;2.42;0.88;;;18.60;96.10;;;;;;6128689;23;20021;-96
2021/05/16 15:54:35;;;;;;;2.92;0.57;;;18.60;96.70;;;;;;6125801;23;20014;-96
2021/05/16 15:57:21;;;;;;;1.45;0.60;;;19.10;94.90;;;;;;6108956;23;20063;-95
2021/05/16 15:59:50;;;;;;;1.80;0.55;;;19.30;92.80;;;;;;6107489;23;20008;-96
2021/05/16 16:02:18;;;;;;;;;;;20.20;86.80;;;;;;6156371;23;20020;-95
2021/05/16 16:04:53;;;;;;;6.60;1.20;;;21.10;77.90;;;;;;6122024;23;19916;-96
2021/05/16 16:07:21;;;;;;;1.52;0.70;;;20.70;78.70;;;;;;6093456;23;20020;-95
2021/05/16 16:10:01;;;;;;;1.40;0.55;;;19.40;83.70;;;;;;6095663;23;20053;-95
2021/05/16 16:12:35;;;;;;;3.90;0.60;;;18.10;93.80;;;;;;6116978;23;20013;-94
2021/05/16 16:15:07;;;;;;;2.08;0.68;;;17.40;97.70;;;;;;6092030;23;20029;-92
2021/05/16 16:17:37;;;;;;;1.38;0.70;;;16.90;97.30;;;;;;6124569;23;20014;-93
2021/05/16 16:20:08;;;;;;;1.90;0.70;;;17.00;98.20;;;;;;6098790;23;20014;-94
2021/05/16 16:22:39;;;;;;;3.45;0.77;;;18.20;95.10;;;;;;6097476;23;20021;-93
2021/05/16 16:25:08;;;;;;;0.65;0.40;;;18.80;90.40;;;;;;6095242;23;20034;-91
2021/05/16 16:30:36;;;;;;;3.97;0.70;;;20.30;74.00;;;;;;6116896;23;20025;-93
2021/05/16 16:33:08;;;;;;;4.18;1.10;;;21.50;65.90;;;;;;6124366;23;20564;-92
2021/05/16 16:36:03;;;;;;;1.70;0.80;;;23.00;59.60;;;;;;6124768;23;19998;-93
2021/05/16 16:38:33;;;;;;;0.63;0.38;;;23.00;56.40;;;;;;6067331;23;20019;-91
2021/05/16 16:41:32;;;;;;;1.20;0.43;;;22.20;55.50;;;;;;6090745;23;20060;-93
2021/05/16 16:44:07;;;;;;;1.63;0.50;;;22.00;57.20;;;;;;6089273;23;20006;-92
2021/05/16 16:46:42;;;;;;;1.60;0.70;;;22.90;55.30;;;;;;6090357;23;20019;-90
2021/05/16 16:49:12;;;;;;;1.70;0.88;;;23.90;53.30;;;;;;6072713;23;20014;-91
2021/05/16 16:51:41;;;;;;;2.20;0.47;;;23.20;54.30;;;;;;6097538;23;20392;-93
2021/05/16 16:54:10;;;;;;;2.53;0.63;;;21.90;56.40;;;;;;6073457;23;20010;-92
2021/05/16 16:56:43;;;;;;;1.88;0.50;;;22.00;56.60;;;;;;6093645;23;20018;-94
2021/05/16 16:59:14;;;;;;;2.30;0.50;;;21.80;56.10;;;;;;6090236;23;20014;-94
2021/05/16 17:01:46;;;;;;;4.43;1.00;;;21.10;58.40;;;;;;6086479;23;20261;-95
2021/05/16 17:04:14;;;;;;;0.35;0.28;;;21.00;59.00;;;;;;6062770;23;20050;-93
2021/05/16 17:06:45;;;;;;;2.15;0.60;;;20.90;58.70;;;;;;6065807;23;20021;-94
2021/05/16 17:09:13;;;;;;;1.60;0.60;;;20.90;58.80;;;;;;6065543;23;20014;-94
2021/05/16 17:11:47;;;;;;;1.33;0.57;;;20.40;59.60;;;;;;6110946;23;20051;-92
2021/05/16 17:14:17;;;;;;;1.05;0.30;;;20.30;59.60;;;;;;6064775;23;20014;-93
2021/05/16 17:17:17;;;;;;;0.82;0.45;;;19.70;60.80;;;;;;6089588;23;20014;-95
2021/05/16 17:19:48;;;;;;;2.03;0.55;;;19.60;62.00;;;;;;6098071;23;20018;-92
2021/05/16 17:22:15;;;;;;;4.22;0.60;;;19.30;62.80;;;;;;6072287;23;20021;-90
2021/05/16 17:24:49;;;;;;;0.93;0.47;;;18.80;64.30;;;;;;6119667;23;20020;-93
2021/05/16 17:27:16;;;;;;;2.47;0.60;;;18.20;67.00;;;;;;6117894;23;20010;-93
2021/05/16 17:29:48;;;;;;;1.52;0.80;;;17.70;71.60;;;;;;6095298;23;20010;-93
2021/05/16 17:32:17;;;;;;;3.58;1.33;;;17.50;74.00;;;;;;6096558;23;20026;-92
2021/05/16 17:41:48;;;;;;;4.40;0.70;;;16.60;86.80;;;;;;6115137;23;20046;-93
2021/05/16 17:44:15;;;;;;;4.10;0.68;;;16.60;90.60;;;;;;6094200;23;20014;-94
2021/05/16 17:46:44;;;;;;;4.20;0.60;;;16.60;90.80;;;;;;6118333;23;20017;-95
2021/05/16 17:49:25;;;;;;;;;;;;;;;;;;;;;
2021/05/16 17:51:56;;;;;;;3.05;0.70;;;16.50;91.10;;;;;;6094941;23;20006;-95
2021/05/16 17:54:25;;;;;;;1.63;0.50;;;16.50;90.90;;;;;;6097718;23;20021;-94
2021/05/16 17:57:01;;;;;;;;;;;16.50;91.10;;;;;;6104193;23;20017;-93
2021/05/16 17:59:30;;;;;;;4.70;0.65;;;16.40;90.80;;;;;;6080264;23;19916;-95
2021/05/16 18:02:01;;;;;;;2.30;0.45;;;16.40;90.00;;;;;;6127830;23;20021;-92
2021/05/16 18:04:34;;;;;;;2.45;0.52;;;16.40;89.10;;;;;;6129373;23;20010;-92
2021/05/16 18:07:12;;;;;;;2.75;0.70;;;16.30;88.40;;;;;;6105862;23;20017;-95
2021/05/16 18:09:47;;;;;;;1.50;0.52;;;16.20;90.10;;;;;;6098266;23;20014;-96
2021/05/16 18:12:15;;;;;;;3.45;0.70;;;16.20;88.80;;;;;;6106602;23;20006;-95
2021/05/16 18:14:45;;;;;;;1.10;0.60;;;16.20;89.30;;;;;;6125686;23;20336;-95
2021/05/16 18:17:16;;;;;;;1.45;0.70;;;16.10;90.10;;;;;;6123672;23;20014;-92
2021/05/16 18:19:44;;;;;;;2.08;0.75;;;16.00;90.80;;;;;;6098522;23;20009;-92
2021/05/16 18:22:16;;;;;;;2.40;0.70;;;16.00;91.50;;;;;;6122800;23;20365;-95
2021/05/16 18:24:44;;;;;;;1.73;0.85;;;15.90;92.30;;;;;;6096458;23;20268;-94
2021/05/16 18:27:14;;;;;;;2.65;0.88;;;15.90;93.50;;;;;;6117600;23;20021;-92
2021/05/16 18:29:47;;;;;;;4.57;0.98;;;15.90;94.20;;;;;;6092837;23;20251;-96
2021/05/16 18:32:19;;;;;;;3.55;1.08;;;15.80;94.90;;;;;;6093320;23;20013;-96
2021/05/16 18:34:51;;;;;;;6.55;1.88;;;15.80;95.50;;;;;;6144403;23;20022;-96
2021/05/16 18:37:23;;;;;;;2.42;0.93;;;15.80;95.80;;;;;;6103448;23;20006;-96
2021/05/16 18:39:52;;;;;;;4.40;1.92;;;15.70;96.40;;;;;;6126530;23;20021;-95
2021/05/16 18:42:23;;;;;;;2.45;0.95;;;15.60;97.10;;;;;;6121086;23;20017;-95
2021/05/16 18:44:51;;;;;;;1.48;0.70;;;15.40;97.90;;;;;;6120622;23;20014;-94
2021/05/16 18:47:21;;;;;;;4.25;0.90;;;15.50;97.80;;;;;;6120046;23;20018;-96
2021/05/16 18:49:50;;;;;;;2.20;0.77;;;15.40;97.50;;;;;;6096270;23;20017;-95
2021/05/16 18:52:29;;;;;;;4.40;1.13;;;15.30;98.20;;;;;;6121445;23;20013;-96
2021/05/16 18:55:00;;;;;;;2.58;1.05;;;15.10;99.20;;;;;;6098103;23;20013;-96
2021/05/16 18:57:33;;;;;;;3.20;1.20;;;15.00;99.90;;;;;;6119889;23;20021;-95
2021/05/16 19:00:07;;;;;;;4.38;1.00;;;14.80;99.90;;;;;;6095425;23;20014;-96
2021/05/16 19:02:36;;;;;;;3.13;1.30;;;14.60;99.90;;;;;;6119544;23;20013;-94
2021/05/16 19:05:10;;;;;;;3.17;1.30;;;14.50;99.90;;;;;;6128068;23;20013;-94
2021/05/16 19:07:38;;;;;;;3.00;1.50;;;14.40;99.90;;;;;;6103529;23;20018;-93
2021/05/16 19:10:11;;;;;;;3.85;1.45;;;14.50;99.90;;;;;;6071256;23;20250;-94
2021/05/16 19:12:40;;;;;;;7.18;2.58;;;14.60;99.90;;;;;;6124522;23;20010;-94
2021/05/16 19:15:27;;;;;;;3.17;1.33;;;14.50;99.90;;;;;;6121668;23;20017;-93
2021/05/16 19:18:08;;;;;;;2.83;1.30;;;14.50;99.90;;;;;;6102182;23;20013;-95
2021/05/16 19:20:58;;;;;;;3.88;1.30;;;14.40;99.90;;;;;;6151713;23;20017;-93
2021/05/16 19:26:51;;;;;;;4.43;1.35;;;14.30;99.90;;;;;;5974157;24;20013;-90
2021/05/16 19:29:28;;;;;;;2.17;1.10;;;14.30;99.90;;;;;;5927073;24;20015;-90
2021/05/16 19:31:58;;;;;;;3.63;1.53;;;14.30;99.90;;;;;;5972235;24;20039;-89
2021/05/16 19:34:36;;;;;;;3.15;1.48;;;14.50;99.90;;;;;;5955967;24;20017;-90
2021/05/16 19:37:15;;;;;;;2.85;1.13;;;14.50;99.90;;;;;;5957283;24;20317;-90
2021/05/16 19:42:30;;;;;;;2.17;1.17;;;14.50;99.90;;;;;;5949913;24;20016;-90
2021/05/16 19:44:58;;;;;;;3.00;1.10;;;14.50;99.90;;;;;;5946565;24;21825;-89
2021/05/16 19:47:39;;;;;;;2.75;1.00;;;14.40;99.90;;;;;;5970858;24;20325;-91
2021/05/16 19:50:15;;;;;;;1.38;0.77;;;14.40;99.90;;;;;;5972347;24;20020;-89
2021/05/16 19:52:52;;;;;;;2.80;1.02;;;14.20;99.90;;;;;;5970338;24;20023;-90
2021/05/16 19:55:23;;;;;;;5.18;0.82;;;14.10;99.90;;;;;;5970011;24;20027;-91
2021/05/16 19:58:08;;;;;;;3.40;1.30;;;14.00;99.90;;;;;;5973451;24;20008;-94
2021/05/16 20:00:39;;;;;;;3.15;1.00;;;14.00;99.90;;;;;;5950481;24;20004;-93
2021/05/16 20:03:10;;;;;;;4.05;1.30;;;13.90;99.90;;;;;;5973670;24;20024;-89
2021/05/16 20:05:39;;;;;;;3.80;1.00;;;13.90;99.90;;;;;;5951306;24;20023;-89
2021/05/16 20:08:08;;;;;;;2.50;0.90;;;13.90;99.90;;;;;;5973174;24;20250;-88
2021/05/16 20:10:44;;;;;;;4.75;1.10;;;13.90;99.90;;;;;;5950442;24;20012;-89
2021/05/16 20:13:15;;;;;;;2.42;1.15;;;13.90;99.90;;;;;;5924035;24;20044;-86
2021/05/16 20:15:45;;;;;;;4.43;1.10;;;13.70;99.90;;;;;;5971848;24;20222;-85
2021/05/16 20:18:13;;;;;;;3.92;1.38;;;13.70;99.90;;;;;;5971138;24;20267;-86
2021/05/16 20:20:50;;;;;;;5.18;1.65;;;13.60;99.90;;;;;;5969386;24;20005;-90
2021/05/16 20:23:22;;;;;;;6.28;1.35;;;13.60;99.90;;;;;;5972583;24;20016;-90
2021/05/16 20:25:53;;;;;;;2.65;1.10;;;13.30;99.90;;;;;;5949407;24;20028;-90
2021/05/16 20:28:23;;;;;;;3.03;1.20;;;13.40;99.90;;;;;;5970908;24;20027;-88
2021/05/16 20:30:52;;;;;;;2.75;1.17;;;13.30;99.90;;;;;;5972836;24;20467;-93
2021/05/16 20:33:25;;;;;;;3.28;1.00;;;13.30;99.90;;;;;;5975339;24;20009;-90
2021/05/16 20:36:01;;;;;;;4.00;0.95;;;13.30;99.90;;;;;;5977574;24;20013;-90
2021/05/16 20:38:33;;;;;;;4.18;1.10;;;13.20;99.90;;;;;;5954568;24;20009;-91
2021/05/16 20:41:02;;;;;;;4.97;1.33;;;13.20;99.90;;;;;;5973920;24;20020;-88
2021/05/16 20:43:29;;;;;;;3.78;1.10;;;13.10;99.90;;;;;;5948134;24;20049;-88
2021/05/16 20:45:57;;;;;;;3.55;1.23;;;13.20;99.90;;;;;;5945148;24;20053;-90
2021/05/16 20:48:25;;;;;;;2.20;0.93;;;13.20;99.90;;;;;;5943516;24;20105;-90
2021/05/16 20:50:55;;;;;;;3.95;1.05;;;13.10;99.90;;;;;;5965695;24;20044;-90
2021/05/16 20:53:24;;;;;;;3.70;1.13;;;12.90;99.90;;;;;;5942782;24;20052;-88
2021/05/16 20:55:52;;;;;;;1.95;0.77;;;13.00;99.90;;;;;;5969108;24;20022;-89
2021/05/16 20:58:19;;;;;;;3.30;1.30;;;12.90;99.90;;;;;;5975701;24;20013;-90
2021/05/16 21:00:47;;;;;;;2.58;0.98;;;12.90;99.90;;;;;;5972263;24;20012;-87
2021/05/16 21:03:15;;;;;;;5.10;2.40;;;12.90;99.90;;;;;;5953746;24;20016;-85
2021/05/16 21:05:42;;;;;;;2.33;0.88;;;12.80;99.90;;;;;;5973574;24;20024;-85
2021/05/16 21:08:22;;;;;;;1.35;0.88;;;12.80;99.90;;;;;;5973706;24;20059;-87
2021/05/16 21:10:51;;;;;;;5.30;0.90;;;12.80;99.90;;;;;;5970468;24;20031;-89
2021/05/16 21:13:22;;;;;;;4.05;1.20;;;12.70;99.90;;;;;;5972425;24;20330;-88
2021/05/16 21:15:50;;;;;;;3.03;1.10;;;12.80;99.90;;;;;;5953017;24;20012;-86
2021/05/16 21:18:18;;;;;;;2.05;0.80;;;12.80;99.90;;;;;;5927656;24;20023;-88
2021/05/16 21:20:47;;;;;;;4.35;1.60;;;12.70;99.90;;;;;;5974656;24;20017;-86
2021/05/16 21:23:14;;;;;;;2.50;0.90;;;12.70;99.90;;;;;;5976827;24;20023;-87
2021/05/16 21:25:42;;;;;;;3.13;0.82;;;12.70;99.90;;;;;;5968682;24;20044;-87
2021/05/16 21:28:10;;;;;;;1.95;1.35;;;12.80;99.90;;;;;;5969895;24;20016;-86
2021/05/16 21:30:39;;;;;;;1.83;0.77;;;12.70;99.90;;;;;;5968232;24;20044;-87
2021/05/16 21:33:07;;;;;;;4.65;1.98;;;12.60;99.90;;;;;;5946804;24;20028;-87
2021/05/16 21:35:37;;;;;;;2.45;1.00;;;12.60;99.90;;;;;;5966989;24;20048;-88
2021/05/16 21:38:05;;;;;;;2.88;1.20;;;12.60;99.90;;;;;;5968153;24;20041;-87
2021/05/16 21:40:35;;;;;;;6.40;1.10;;;12.60;99.90;;;;;;5952878;24;20017;-87
2021/05/16 21:43:02;;;;;;;2.00;0.95;;;12.50;99.90;;;;;;5973854;24;20016;-85
2021/05/16 21:45:32;;;;;;;4.53;0.95;;;12.40;99.90;;;;;;5946589;24;20033;-87
2021/05/16 21:48:01;;;;;;;3.78;0.90;;;12.40;99.90;;;;;;5971098;24;20017;-87
2021/05/16 21:50:33;;;;;;;4.97;0.95;;;12.50;99.90;;;;;;5972238;24;20016;-89
2021/05/16 21:53:01;;;;;;;2.53;1.00;;;12.50;99.90;;;;;;5953635;24;20020;-86
2021/05/16 21:55:29;;;;;;;2.95;1.08;;;12.50;99.90;;;;;;5962535;24;20000;-85
2021/05/16 21:57:58;;;;;;;2.97;0.93;;;12.50;99.90;;;;;;5939376;24;20009;-85
2021/05/16 22:00:27;;;;;;;2.72;1.02;;;12.40;99.90;;;;;;5984608;24;20012;-86
2021/05/16 22:17:42;;;;;;;2.17;0.90;;;12.00;99.90;;;;;;6137455;23;20018;-87
2021/05/16 22:20:11;;;;;;;2.80;0.85;;;12.00;99.90;;;;;;6129243;23;20014;-88
2021/05/16 22:22:39;;;;;;;2.83;1.30;;;12.00;99.90;;;;;;6121119;23;20010;-88
2021/05/16 22:25:09;;;;;;;3.60;1.15;;;12.00;99.90;;;;;;6099840;23;20013;-87
2021/05/16 22:27:37;;;;;;;3.13;0.90;;;12.00;99.90;;;;;;6096626;23;20013;-87
2021/05/16 23:22:06;;;;;;;4.05;1.10;;;11.80;99.90;;;;;;6113876;23;20059;-87
2021/05/16 23:24:34;;;;;;;10.07;1.45;;;11.70;99.90;;;;;;6129842;23;20013;-87
2021/05/16 23:27:02;;;;;;;3.47;1.02;;;11.80;99.90;;;;;;6100896;23;20016;-89
